sensor_id;sensor_type;location;lat;lon;timestamp;P1;durP1;ratioP1;P2;durP2;ratioP2
6832;SDS011;3454;42.654;23.378;2023-04-16T00:00:05;6.77;;;2.50;;
6832;SDS011;3454;42.654;23.378;2023-04-16T00:02:31;3.87;;;2.27;;
6832;SDS011;3454;42.654;23.378;2023-04-16T00:04:57;3.83;;;1.97;;
6832;SDS011;3454;42.654;23.378;2023-04-16T00:07:23;4.07;;;2.37;;
6832;SDS011;3454;42.654;23.378;2023-04-16T00:09:48;4.23;;;2.43;;
6832;SDS011;3454;42.654;23.378;2023-04-16T00:12:14;4.37;;;2.27;;
6832;SDS011;3454;42.654;23.378;2023-04-16T00:14:40;4.53;;;2.33;;
6832;SDS011;3454;42.654;23.378;2023-04-16T00:17:07;2.77;;;1.83;;
6832;SDS011;3454;42.654;23.378;2023-04-16T00:19:34;3.03;;;1.67;;
6832;SDS011;3454;42.654;23.378;2023-04-16T00:21:59;3.53;;;2.40;;
6832;SDS011;3454;42.654;23.378;2023-04-16T00:24:25;2.93;;;2.07;;
6832;SDS011;3454;42.654;23.378;2023-04-16T00:26:50;2.37;;;1.90;;
6832;SDS011;3454;42.654;23.378;2023-04-16T00:29:15;4.80;;;2.03;;
6832;SDS011;3454;42.654;23.378;2023-04-16T00:31:41;4.23;;;2.20;;
6832;SDS011;3454;42.654;23.378;2023-04-16T00:34:06;4.17;;;2.10;;
6832;SDS011;3454;42.654;23.378;2023-04-16T00:36:32;2.33;;;1.80;;
6832;SDS011;3454;42.654;23.378;2023-04-16T00:38:57;3.77;;;1.80;;
6832;SDS011;3454;42.654;23.378;2023-04-16T00:41:23;3.10;;;1.40;;
6832;SDS011;3454;42.654;23.378;2023-04-16T00:43:48;2.70;;;1.40;;
6832;SDS011;3454;42.654;23.378;2023-04-16T00:46:15;3.20;;;1.27;;
6832;SDS011;3454;42.654;23.378;2023-04-16T00:48:42;1.87;;;1.37;;
6832;SDS011;3454;42.654;23.378;2023-04-16T00:51:09;3.87;;;1.57;;
6832;SDS011;3454;42.654;23.378;2023-04-16T00:53:36;1.80;;;1.60;;
6832;SDS011;3454;42.654;23.378;2023-04-16T00:56:02;4.60;;;1.60;;
6832;SDS011;3454;42.654;23.378;2023-04-16T00:58:30;3.10;;;1.53;;
6832;SDS011;3454;42.654;23.378;2023-04-16T01:00:55;2.87;;;1.70;;
6832;SDS011;3454;42.654;23.378;2023-04-16T01:03:21;3.30;;;1.30;;
6832;SDS011;3454;42.654;23.378;2023-04-16T01:05:48;5.40;;;1.73;;
6832;SDS011;3454;42.654;23.378;2023-04-16T01:08:16;5.20;;;1.70;;
6832;SDS011;3454;42.654;23.378;2023-04-16T01:10:43;3.13;;;1.50;;
6832;SDS011;3454;42.654;23.378;2023-04-16T01:13:10;2.87;;;1.60;;
6832;SDS011;3454;42.654;23.378;2023-04-16T01:15:36;2.83;;;1.60;;
6832;SDS011;3454;42.654;23.378;2023-04-16T01:18:01;2.13;;;1.60;;
6832;SDS011;3454;42.654;23.378;2023-04-16T01:20:27;3.97;;;1.90;;
6832;SDS011;3454;42.654;23.378;2023-04-16T01:22:53;4.17;;;2.07;;
6832;SDS011;3454;42.654;23.378;2023-04-16T01:25:19;2.07;;;1.50;;
6832;SDS011;3454;42.654;23.378;2023-04-16T01:27:47;2.13;;;1.23;;
6832;SDS011;3454;42.654;23.378;2023-04-16T01:30:13;3.57;;;1.67;;
6832;SDS011;3454;42.654;23.378;2023-04-16T01:32:39;2.40;;;1.43;;
6832;SDS011;3454;42.654;23.378;2023-04-16T01:35:04;1.73;;;1.47;;
6832;SDS011;3454;42.654;23.378;2023-04-16T01:37:30;3.00;;;1.67;;
6832;SDS011;3454;42.654;23.378;2023-04-16T01:39:56;3.47;;;1.60;;
6832;SDS011;3454;42.654;23.378;2023-04-16T01:42:21;2.40;;;1.67;;
6832;SDS011;3454;42.654;23.378;2023-04-16T01:44:46;3.57;;;1.70;;
6832;SDS011;3454;42.654;23.378;2023-04-16T01:47:13;3.00;;;1.40;;
6832;SDS011;3454;42.654;23.378;2023-04-16T01:49:38;3.13;;;1.20;;
6832;SDS011;3454;42.654;23.378;2023-04-16T01:52:04;1.30;;;1.20;;
6832;SDS011;3454;42.654;23.378;2023-04-16T01:54:29;2.43;;;1.40;;
6832;SDS011;3454;42.654;23.378;2023-04-16T01:56:54;2.53;;;1.40;;
6832;SDS011;3454;42.654;23.378;2023-04-16T01:59:21;5.07;;;1.70;;
6832;SDS011;3454;42.654;23.378;2023-04-16T02:01:46;1.40;;;1.30;;
6832;SDS011;3454;42.654;23.378;2023-04-16T02:04:11;3.30;;;2.10;;
6832;SDS011;3454;42.654;23.378;2023-04-16T02:06:37;3.10;;;2.00;;
6832;SDS011;3454;42.654;23.378;2023-04-16T02:09:03;2.07;;;1.50;;
6832;SDS011;3454;42.654;23.378;2023-04-16T02:11:28;2.20;;;1.40;;
6832;SDS011;3454;42.654;23.378;2023-04-16T02:13:54;4.10;;;1.70;;
6832;SDS011;3454;42.654;23.378;2023-04-16T02:16:19;3.67;;;2.10;;
6832;SDS011;3454;42.654;23.378;2023-04-16T02:18:45;4.83;;;1.50;;
6832;SDS011;3454;42.654;23.378;2023-04-16T02:21:10;3.27;;;1.60;;
6832;SDS011;3454;42.654;23.378;2023-04-16T02:23:35;4.07;;;2.00;;
6832;SDS011;3454;42.654;23.378;2023-04-16T02:26:01;1.90;;;1.30;;
6832;SDS011;3454;42.654;23.378;2023-04-16T02:28:27;3.93;;;1.63;;
6832;SDS011;3454;42.654;23.378;2023-04-16T02:30:53;3.63;;;2.10;;
6832;SDS011;3454;42.654;23.378;2023-04-16T02:33:18;3.90;;;1.80;;
6832;SDS011;3454;42.654;23.378;2023-04-16T02:35:44;4.13;;;2.20;;
6832;SDS011;3454;42.654;23.378;2023-04-16T02:38:09;3.53;;;1.80;;
6832;SDS011;3454;42.654;23.378;2023-04-16T02:40:35;6.13;;;1.90;;
6832;SDS011;3454;42.654;23.378;2023-04-16T02:43:00;5.53;;;2.40;;
6832;SDS011;3454;42.654;23.378;2023-04-16T02:45:26;2.23;;;1.63;;
6832;SDS011;3454;42.654;23.378;2023-04-16T02:47:51;5.50;;;2.00;;
6832;SDS011;3454;42.654;23.378;2023-04-16T02:50:17;4.30;;;2.00;;
6832;SDS011;3454;42.654;23.378;2023-04-16T02:52:42;3.53;;;1.90;;
6832;SDS011;3454;42.654;23.378;2023-04-16T02:55:08;2.43;;;1.60;;
6832;SDS011;3454;42.654;23.378;2023-04-16T02:57:34;1.97;;;1.60;;
6832;SDS011;3454;42.654;23.378;2023-04-16T03:00:00;2.80;;;1.77;;
6832;SDS011;3454;42.654;23.378;2023-04-16T03:02:26;3.13;;;1.47;;
6832;SDS011;3454;42.654;23.378;2023-04-16T03:04:54;2.40;;;1.70;;
6832;SDS011;3454;42.654;23.378;2023-04-16T03:07:19;2.90;;;1.90;;
6832;SDS011;3454;42.654;23.378;2023-04-16T03:09:45;2.27;;;1.67;;
6832;SDS011;3454;42.654;23.378;2023-04-16T03:12:11;3.23;;;1.83;;
6832;SDS011;3454;42.654;23.378;2023-04-16T03:14:36;3.13;;;1.77;;
6832;SDS011;3454;42.654;23.378;2023-04-16T03:17:02;3.63;;;1.50;;
6832;SDS011;3454;42.654;23.378;2023-04-16T03:19:27;4.13;;;2.00;;
6832;SDS011;3454;42.654;23.378;2023-04-16T03:21:53;2.37;;;1.67;;
6832;SDS011;3454;42.654;23.378;2023-04-16T03:24:18;3.63;;;1.67;;
6832;SDS011;3454;42.654;23.378;2023-04-16T03:26:43;1.60;;;1.17;;
6832;SDS011;3454;42.654;23.378;2023-04-16T03:29:09;2.50;;;1.63;;
6832;SDS011;3454;42.654;23.378;2023-04-16T03:31:34;2.33;;;1.50;;
6832;SDS011;3454;42.654;23.378;2023-04-16T03:34:00;9.63;;;1.90;;
6832;SDS011;3454;42.654;23.378;2023-04-16T03:36:25;2.50;;;1.50;;
6832;SDS011;3454;42.654;23.378;2023-04-16T03:38:54;3.10;;;1.87;;
6832;SDS011;3454;42.654;23.378;2023-04-16T03:41:19;2.90;;;1.60;;
6832;SDS011;3454;42.654;23.378;2023-04-16T03:43:44;2.60;;;2.00;;
6832;SDS011;3454;42.654;23.378;2023-04-16T03:46:10;2.53;;;1.80;;
6832;SDS011;3454;42.654;23.378;2023-04-16T03:48:35;2.50;;;1.60;;
6832;SDS011;3454;42.654;23.378;2023-04-16T03:51:01;3.33;;;1.43;;
6832;SDS011;3454;42.654;23.378;2023-04-16T03:53:26;2.27;;;1.73;;
6832;SDS011;3454;42.654;23.378;2023-04-16T03:55:52;4.40;;;1.70;;
6832;SDS011;3454;42.654;23.378;2023-04-16T03:58:18;3.23;;;1.73;;
6832;SDS011;3454;42.654;23.378;2023-04-16T04:00:43;3.23;;;2.03;;
6832;SDS011;3454;42.654;23.378;2023-04-16T04:03:09;4.83;;;1.70;;
6832;SDS011;3454;42.654;23.378;2023-04-16T04:05:36;3.57;;;1.63;;
6832;SDS011;3454;42.654;23.378;2023-04-16T04:08:02;3.17;;;1.50;;
6832;SDS011;3454;42.654;23.378;2023-04-16T04:10:34;5.10;;;1.47;;
6832;SDS011;3454;42.654;23.378;2023-04-16T04:13:04;3.37;;;1.60;;
6832;SDS011;3454;42.654;23.378;2023-04-16T04:15:30;6.67;;;2.03;;
6832;SDS011;3454;42.654;23.378;2023-04-16T04:18:02;3.77;;;1.63;;
6832;SDS011;3454;42.654;23.378;2023-04-16T04:20:28;4.03;;;1.80;;
6832;SDS011;3454;42.654;23.378;2023-04-16T04:22:53;2.67;;;1.53;;
6832;SDS011;3454;42.654;23.378;2023-04-16T04:25:19;3.20;;;1.80;;
6832;SDS011;3454;42.654;23.378;2023-04-16T04:27:44;4.10;;;1.70;;
6832;SDS011;3454;42.654;23.378;2023-04-16T04:30:10;3.13;;;1.73;;
6832;SDS011;3454;42.654;23.378;2023-04-16T04:32:36;3.57;;;1.57;;
6832;SDS011;3454;42.654;23.378;2023-04-16T04:35:01;2.83;;;1.37;;
6832;SDS011;3454;42.654;23.378;2023-04-16T04:37:27;5.23;;;1.80;;
6832;SDS011;3454;42.654;23.378;2023-04-16T04:39:53;3.13;;;1.37;;
6832;SDS011;3454;42.654;23.378;2023-04-16T04:42:19;25.83;;;3.10;;
6832;SDS011;3454;42.654;23.378;2023-04-16T04:44:45;2.47;;;1.47;;
6832;SDS011;3454;42.654;23.378;2023-04-16T04:47:11;3.33;;;1.60;;
6832;SDS011;3454;42.654;23.378;2023-04-16T04:49:36;2.37;;;1.40;;
6832;SDS011;3454;42.654;23.378;2023-04-16T04:52:02;3.13;;;1.90;;
6832;SDS011;3454;42.654;23.378;2023-04-16T04:54:29;4.27;;;2.03;;
6832;SDS011;3454;42.654;23.378;2023-04-16T04:56:55;3.20;;;1.77;;
6832;SDS011;3454;42.654;23.378;2023-04-16T04:59:21;2.47;;;1.80;;
6832;SDS011;3454;42.654;23.378;2023-04-16T05:01:48;5.13;;;1.90;;
6832;SDS011;3454;42.654;23.378;2023-04-16T05:04:13;6.13;;;2.30;;
6832;SDS011;3454;42.654;23.378;2023-04-16T05:06:39;2.70;;;1.87;;
6832;SDS011;3454;42.654;23.378;2023-04-16T05:09:05;5.43;;;2.13;;
6832;SDS011;3454;42.654;23.378;2023-04-16T05:11:35;2.77;;;2.27;;
6832;SDS011;3454;42.654;23.378;2023-04-16T05:14:01;6.83;;;2.70;;
6832;SDS011;3454;42.654;23.378;2023-04-16T05:16:26;5.00;;;2.27;;
6832;SDS011;3454;42.654;23.378;2023-04-16T05:18:51;3.80;;;2.20;;
6832;SDS011;3454;42.654;23.378;2023-04-16T05:21:17;3.77;;;2.03;;
6832;SDS011;3454;42.654;23.378;2023-04-16T05:23:42;3.80;;;2.27;;
6832;SDS011;3454;42.654;23.378;2023-04-16T05:26:08;2.83;;;2.10;;
6832;SDS011;3454;42.654;23.378;2023-04-16T05:28:33;4.50;;;1.93;;
6832;SDS011;3454;42.654;23.378;2023-04-16T05:30:58;3.47;;;2.23;;
6832;SDS011;3454;42.654;23.378;2023-04-16T05:33:24;3.67;;;2.10;;
6832;SDS011;3454;42.654;23.378;2023-04-16T05:35:50;4.37;;;2.57;;
6832;SDS011;3454;42.654;23.378;2023-04-16T05:38:15;5.73;;;2.63;;
6832;SDS011;3454;42.654;23.378;2023-04-16T05:40:40;2.60;;;2.30;;
6832;SDS011;3454;42.654;23.378;2023-04-16T05:43:07;5.37;;;2.63;;
6832;SDS011;3454;42.654;23.378;2023-04-16T05:45:32;4.03;;;2.20;;
6832;SDS011;3454;42.654;23.378;2023-04-16T05:48:03;7.13;;;2.73;;
6832;SDS011;3454;42.654;23.378;2023-04-16T05:50:29;4.10;;;2.30;;
6832;SDS011;3454;42.654;23.378;2023-04-16T05:52:55;4.23;;;2.70;;
6832;SDS011;3454;42.654;23.378;2023-04-16T05:55:20;2.93;;;2.30;;
6832;SDS011;3454;42.654;23.378;2023-04-16T05:57:45;7.30;;;2.40;;
6832;SDS011;3454;42.654;23.378;2023-04-16T06:00:11;6.43;;;2.77;;
6832;SDS011;3454;42.654;23.378;2023-04-16T06:02:38;5.87;;;2.30;;
6832;SDS011;3454;42.654;23.378;2023-04-16T06:05:03;4.90;;;2.40;;
6832;SDS011;3454;42.654;23.378;2023-04-16T06:07:29;4.23;;;2.10;;
6832;SDS011;3454;42.654;23.378;2023-04-16T06:09:55;3.23;;;2.20;;
6832;SDS011;3454;42.654;23.378;2023-04-16T06:12:20;5.90;;;3.77;;
6832;SDS011;3454;42.654;23.378;2023-04-16T06:14:45;8.00;;;4.03;;
6832;SDS011;3454;42.654;23.378;2023-04-16T06:17:11;9.03;;;4.50;;
6832;SDS011;3454;42.654;23.378;2023-04-16T06:19:36;6.30;;;4.80;;
6832;SDS011;3454;42.654;23.378;2023-04-16T06:22:01;9.70;;;5.10;;
6832;SDS011;3454;42.654;23.378;2023-04-16T06:24:28;7.30;;;4.80;;
6832;SDS011;3454;42.654;23.378;2023-04-16T06:26:54;10.50;;;5.53;;
6832;SDS011;3454;42.654;23.378;2023-04-16T06:29:19;7.73;;;4.70;;
6832;SDS011;3454;42.654;23.378;2023-04-16T06:31:45;9.87;;;5.73;;
6832;SDS011;3454;42.654;23.378;2023-04-16T06:34:10;10.20;;;5.77;;
6832;SDS011;3454;42.654;23.378;2023-04-16T06:36:36;10.43;;;5.40;;
6832;SDS011;3454;42.654;23.378;2023-04-16T06:39:01;9.20;;;5.73;;
6832;SDS011;3454;42.654;23.378;2023-04-16T06:41:27;10.77;;;5.37;;
6832;SDS011;3454;42.654;23.378;2023-04-16T06:43:52;9.03;;;5.20;;
6832;SDS011;3454;42.654;23.378;2023-04-16T06:46:18;6.90;;;4.77;;
6832;SDS011;3454;42.654;23.378;2023-04-16T06:48:43;7.73;;;5.03;;
6832;SDS011;3454;42.654;23.378;2023-04-16T06:51:09;7.17;;;4.43;;
6832;SDS011;3454;42.654;23.378;2023-04-16T06:53:35;9.30;;;4.33;;
6832;SDS011;3454;42.654;23.378;2023-04-16T06:56:01;10.33;;;4.53;;
6832;SDS011;3454;42.654;23.378;2023-04-16T06:58:27;6.40;;;4.30;;
6832;SDS011;3454;42.654;23.378;2023-04-16T07:00:52;8.73;;;4.40;;
6832;SDS011;3454;42.654;23.378;2023-04-16T07:03:18;7.53;;;4.27;;
6832;SDS011;3454;42.654;23.378;2023-04-16T07:05:43;8.20;;;4.40;;
6832;SDS011;3454;42.654;23.378;2023-04-16T07:08:09;7.20;;;3.77;;
6832;SDS011;3454;42.654;23.378;2023-04-16T07:10:34;5.25;;;3.40;;
6832;SDS011;3454;42.654;23.378;2023-04-16T07:13:00;4.63;;;3.57;;
6832;SDS011;3454;42.654;23.378;2023-04-16T07:15:25;4.65;;;3.72;;
6832;SDS011;3454;42.654;23.378;2023-04-16T07:17:51;5.38;;;3.53;;
6832;SDS011;3454;42.654;23.378;2023-04-16T07:20:17;7.75;;;3.47;;
6832;SDS011;3454;42.654;23.378;2023-04-16T07:22:42;7.23;;;3.83;;
6832;SDS011;3454;42.654;23.378;2023-04-16T07:25:08;8.20;;;3.50;;
6832;SDS011;3454;42.654;23.378;2023-04-16T07:27:33;7.43;;;3.77;;
6832;SDS011;3454;42.654;23.378;2023-04-16T07:29:59;7.55;;;3.92;;
6832;SDS011;3454;42.654;23.378;2023-04-16T07:32:24;7.27;;;3.27;;
6832;SDS011;3454;42.654;23.378;2023-04-16T07:34:50;6.53;;;3.20;;
6832;SDS011;3454;42.654;23.378;2023-04-16T07:37:16;6.40;;;3.45;;
6832;SDS011;3454;42.654;23.378;2023-04-16T07:39:41;4.63;;;3.17;;
6832;SDS011;3454;42.654;23.378;2023-04-16T07:42:06;5.70;;;3.13;;
6832;SDS011;3454;42.654;23.378;2023-04-16T07:44:32;5.97;;;2.90;;
6832;SDS011;3454;42.654;23.378;2023-04-16T07:46:57;3.55;;;2.53;;
6832;SDS011;3454;42.654;23.378;2023-04-16T07:49:23;5.30;;;2.40;;
6832;SDS011;3454;42.654;23.378;2023-04-16T07:51:48;8.57;;;3.20;;
6832;SDS011;3454;42.654;23.378;2023-04-16T07:54:14;11.00;;;6.23;;
6832;SDS011;3454;42.654;23.378;2023-04-16T07:56:39;4.03;;;2.20;;
6832;SDS011;3454;42.654;23.378;2023-04-16T07:59:05;3.00;;;1.90;;
6832;SDS011;3454;42.654;23.378;2023-04-16T08:01:30;3.78;;;2.30;;
6832;SDS011;3454;42.654;23.378;2023-04-16T08:03:57;4.77;;;3.27;;
6832;SDS011;3454;42.654;23.378;2023-04-16T08:06:22;5.32;;;2.47;;
6832;SDS011;3454;42.654;23.378;2023-04-16T08:08:48;7.05;;;2.80;;
6832;SDS011;3454;42.654;23.378;2023-04-16T08:11:13;6.53;;;3.53;;
6832;SDS011;3454;42.654;23.378;2023-04-16T08:13:39;7.30;;;3.72;;
6832;SDS011;3454;42.654;23.378;2023-04-16T08:16:05;5.70;;;3.00;;
6832;SDS011;3454;42.654;23.378;2023-04-16T08:18:31;8.93;;;4.72;;
6832;SDS011;3454;42.654;23.378;2023-04-16T08:20:56;4.78;;;2.20;;
6832;SDS011;3454;42.654;23.378;2023-04-16T08:23:21;5.38;;;2.05;;
6832;SDS011;3454;42.654;23.378;2023-04-16T08:25:47;6.05;;;2.33;;
6832;SDS011;3454;42.654;23.378;2023-04-16T08:28:13;4.43;;;2.22;;
6832;SDS011;3454;42.654;23.378;2023-04-16T08:30:38;3.03;;;2.05;;
6832;SDS011;3454;42.654;23.378;2023-04-16T08:33:04;5.82;;;2.35;;
6832;SDS011;3454;42.654;23.378;2023-04-16T08:35:30;2.40;;;1.70;;
6832;SDS011;3454;42.654;23.378;2023-04-16T08:37:55;6.93;;;1.85;;
6832;SDS011;3454;42.654;23.378;2023-04-16T08:40:22;4.20;;;2.30;;
6832;SDS011;3454;42.654;23.378;2023-04-16T08:42:54;3.38;;;2.25;;
6832;SDS011;3454;42.654;23.378;2023-04-16T08:45:23;4.57;;;2.60;;
6832;SDS011;3454;42.654;23.378;2023-04-16T08:47:51;3.78;;;2.15;;
6832;SDS011;3454;42.654;23.378;2023-04-16T08:50:21;4.68;;;2.55;;
6832;SDS011;3454;42.654;23.378;2023-04-16T08:55:47;5.72;;;2.45;;
6832;SDS011;3454;42.654;23.378;2023-04-16T08:58:17;4.68;;;2.28;;
6832;SDS011;3454;42.654;23.378;2023-04-16T09:00:45;5.13;;;2.72;;
6832;SDS011;3454;42.654;23.378;2023-04-16T09:03:11;3.58;;;1.98;;
6832;SDS011;3454;42.654;23.378;2023-04-16T09:05:37;5.20;;;2.05;;
6832;SDS011;3454;42.654;23.378;2023-04-16T09:08:03;4.82;;;2.22;;
6832;SDS011;3454;42.654;23.378;2023-04-16T09:10:30;5.00;;;2.17;;
6832;SDS011;3454;42.654;23.378;2023-04-16T09:12:56;7.55;;;2.40;;
6832;SDS011;3454;42.654;23.378;2023-04-16T09:15:22;6.05;;;2.72;;
6832;SDS011;3454;42.654;23.378;2023-04-16T09:17:51;4.75;;;2.20;;
6832;SDS011;3454;42.654;23.378;2023-04-16T09:20:18;3.53;;;2.13;;
6832;SDS011;3454;42.654;23.378;2023-04-16T09:22:44;6.28;;;2.75;;
6832;SDS011;3454;42.654;23.378;2023-04-16T09:25:10;5.43;;;2.42;;
6832;SDS011;3454;42.654;23.378;2023-04-16T09:27:36;6.05;;;1.92;;
6832;SDS011;3454;42.654;23.378;2023-04-16T09:30:19;7.18;;;2.35;;
6832;SDS011;3454;42.654;23.378;2023-04-16T09:32:50;2.80;;;1.85;;
6832;SDS011;3454;42.654;23.378;2023-04-16T09:35:17;6.95;;;2.97;;
6832;SDS011;3454;42.654;23.378;2023-04-16T09:37:46;5.10;;;2.25;;
6832;SDS011;3454;42.654;23.378;2023-04-16T09:40:23;4.95;;;2.20;;
6832;SDS011;3454;42.654;23.378;2023-04-16T09:42:50;3.10;;;2.05;;
6832;SDS011;3454;42.654;23.378;2023-04-16T09:45:16;4.10;;;1.88;;
6832;SDS011;3454;42.654;23.378;2023-04-16T09:47:42;6.95;;;2.85;;
6832;SDS011;3454;42.654;23.378;2023-04-16T09:50:09;4.93;;;2.50;;
6832;SDS011;3454;42.654;23.378;2023-04-16T09:52:38;5.32;;;3.17;;
6832;SDS011;3454;42.654;23.378;2023-04-16T09:55:04;6.68;;;2.65;;
6832;SDS011;3454;42.654;23.378;2023-04-16T09:57:30;9.25;;;2.75;;
6832;SDS011;3454;42.654;23.378;2023-04-16T10:00:03;13.00;;;7.45;;
6832;SDS011;3454;42.654;23.378;2023-04-16T10:02:30;6.10;;;2.15;;
6832;SDS011;3454;42.654;23.378;2023-04-16T10:04:57;3.28;;;2.33;;
6832;SDS011;3454;42.654;23.378;2023-04-16T10:07:28;3.95;;;2.70;;
6832;SDS011;3454;42.654;23.378;2023-04-16T10:09:58;4.53;;;2.58;;
6832;SDS011;3454;42.654;23.378;2023-04-16T10:12:24;4.28;;;2.47;;
6832;SDS011;3454;42.654;23.378;2023-04-16T10:14:49;5.82;;;2.58;;
6832;SDS011;3454;42.654;23.378;2023-04-16T10:17:15;4.03;;;2.15;;
6832;SDS011;3454;42.654;23.378;2023-04-16T10:19:42;8.75;;;3.40;;
6832;SDS011;3454;42.654;23.378;2023-04-16T10:22:08;6.80;;;4.00;;
6832;SDS011;3454;42.654;23.378;2023-04-16T10:24:34;6.85;;;2.70;;
6832;SDS011;3454;42.654;23.378;2023-04-16T10:27:00;4.78;;;2.20;;
6832;SDS011;3454;42.654;23.378;2023-04-16T10:29:26;4.05;;;2.90;;
6832;SDS011;3454;42.654;23.378;2023-04-16T10:31:53;10.65;;;7.72;;
6832;SDS011;3454;42.654;23.378;2023-04-16T10:34:21;5.85;;;2.80;;
6832;SDS011;3454;42.654;23.378;2023-04-16T10:36:48;3.63;;;1.98;;
6832;SDS011;3454;42.654;23.378;2023-04-16T10:39:17;3.35;;;1.80;;
6832;SDS011;3454;42.654;23.378;2023-04-16T10:41:45;6.13;;;3.35;;
6832;SDS011;3454;42.654;23.378;2023-04-16T10:44:10;3.65;;;2.20;;
6832;SDS011;3454;42.654;23.378;2023-04-16T10:49:39;2.38;;;2.03;;
6832;SDS011;3454;42.654;23.378;2023-04-16T10:52:00;6.30;;;2.22;;
6832;SDS011;3454;42.654;23.378;2023-04-16T10:54:34;13.68;;;8.05;;
6832;SDS011;3454;42.654;23.378;2023-04-16T10:57:03;5.10;;;2.47;;
6832;SDS011;3454;42.654;23.378;2023-04-16T10:59:33;2.17;;;1.98;;
6832;SDS011;3454;42.654;23.378;2023-04-16T11:02:00;10.82;;;5.50;;
6832;SDS011;3454;42.654;23.378;2023-04-16T11:04:36;2.05;;;1.65;;
6832;SDS011;3454;42.654;23.378;2023-04-16T11:07:04;1.88;;;1.60;;
6832;SDS011;3454;42.654;23.378;2023-04-16T11:09:50;4.93;;;2.28;;
6832;SDS011;3454;42.654;23.378;2023-04-16T11:15:04;5.57;;;1.88;;
6832;SDS011;3454;42.654;23.378;2023-04-16T11:17:35;4.70;;;2.20;;
6832;SDS011;3454;42.654;23.378;2023-04-16T11:20:15;4.55;;;1.77;;
6832;SDS011;3454;42.654;23.378;2023-04-16T11:22:42;4.75;;;2.05;;
6832;SDS011;3454;42.654;23.378;2023-04-16T11:25:09;3.47;;;1.70;;
6832;SDS011;3454;42.654;23.378;2023-04-16T11:27:36;5.05;;;1.85;;
6832;SDS011;3454;42.654;23.378;2023-04-16T11:30:03;4.38;;;2.08;;
6832;SDS011;3454;42.654;23.378;2023-04-16T11:32:30;5.90;;;2.20;;
6832;SDS011;3454;42.654;23.378;2023-04-16T11:35:00;3.15;;;1.52;;
6832;SDS011;3454;42.654;23.378;2023-04-16T11:37:34;3.33;;;1.40;;
6832;SDS011;3454;42.654;23.378;2023-04-16T11:40:01;2.95;;;1.58;;
6832;SDS011;3454;42.654;23.378;2023-04-16T11:42:31;3.03;;;1.45;;
6832;SDS011;3454;42.654;23.378;2023-04-16T11:44:58;3.10;;;1.98;;
6832;SDS011;3454;42.654;23.378;2023-04-16T11:47:28;3.47;;;1.27;;
6832;SDS011;3454;42.654;23.378;2023-04-16T11:49:55;4.55;;;1.80;;
6832;SDS011;3454;42.654;23.378;2023-04-16T11:52:27;2.22;;;1.40;;
6832;SDS011;3454;42.654;23.378;2023-04-16T11:54:55;2.53;;;1.30;;
6832;SDS011;3454;42.654;23.378;2023-04-16T11:57:27;3.80;;;1.73;;
6832;SDS011;3454;42.654;23.378;2023-04-16T11:59:54;2.83;;;1.25;;
6832;SDS011;3454;42.654;23.378;2023-04-16T12:05:06;1.95;;;1.25;;
6832;SDS011;3454;42.654;23.378;2023-04-16T12:07:54;2.22;;;1.65;;
6832;SDS011;3454;42.654;23.378;2023-04-16T12:10:23;2.90;;;1.80;;
6832;SDS011;3454;42.654;23.378;2023-04-16T12:12:49;3.15;;;1.30;;
6832;SDS011;3454;42.654;23.378;2023-04-16T12:15:16;4.40;;;1.50;;
6832;SDS011;3454;42.654;23.378;2023-04-16T12:17:41;2.22;;;1.45;;
6832;SDS011;3454;42.654;23.378;2023-04-16T12:20:13;3.67;;;1.27;;
6832;SDS011;3454;42.654;23.378;2023-04-16T12:22:44;4.55;;;2.17;;
6832;SDS011;3454;42.654;23.378;2023-04-16T12:25:12;4.60;;;1.90;;
6832;SDS011;3454;42.654;23.378;2023-04-16T12:27:40;1.60;;;1.27;;
6832;SDS011;3454;42.654;23.378;2023-04-16T12:30:12;2.67;;;1.50;;
6832;SDS011;3454;42.654;23.378;2023-04-16T12:32:40;2.55;;;1.35;;
6832;SDS011;3454;42.654;23.378;2023-04-16T12:35:07;2.85;;;1.40;;
6832;SDS011;3454;42.654;23.378;2023-04-16T12:37:34;2.15;;;1.45;;
6832;SDS011;3454;42.654;23.378;2023-04-16T12:40:00;2.53;;;1.20;;
6832;SDS011;3454;42.654;23.378;2023-04-16T12:42:25;3.65;;;1.15;;
6832;SDS011;3454;42.654;23.378;2023-04-16T12:44:51;2.70;;;1.30;;
6832;SDS011;3454;42.654;23.378;2023-04-16T12:47:17;6.45;;;1.75;;
6832;SDS011;3454;42.654;23.378;2023-04-16T12:49:42;3.42;;;1.73;;
6832;SDS011;3454;42.654;23.378;2023-04-16T12:52:09;6.03;;;1.95;;
6832;SDS011;3454;42.654;23.378;2023-04-16T12:54:34;3.42;;;1.38;;
6832;SDS011;3454;42.654;23.378;2023-04-16T12:57:00;7.90;;;1.85;;
6832;SDS011;3454;42.654;23.378;2023-04-16T12:59:25;2.65;;;1.83;;
6832;SDS011;3454;42.654;23.378;2023-04-16T13:01:51;3.60;;;1.80;;
6832;SDS011;3454;42.654;23.378;2023-04-16T13:04:16;3.58;;;2.25;;
6832;SDS011;3454;42.654;23.378;2023-04-16T13:06:43;1.95;;;1.60;;
6832;SDS011;3454;42.654;23.378;2023-04-16T13:09:09;3.95;;;1.92;;
6832;SDS011;3454;42.654;23.378;2023-04-16T13:11:35;3.67;;;1.60;;
6832;SDS011;3454;42.654;23.378;2023-04-16T13:14:01;3.25;;;1.70;;
6832;SDS011;3454;42.654;23.378;2023-04-16T13:16:27;5.75;;;2.00;;
6832;SDS011;3454;42.654;23.378;2023-04-16T13:18:52;3.95;;;1.90;;
6832;SDS011;3454;42.654;23.378;2023-04-16T13:21:18;2.95;;;1.83;;
6832;SDS011;3454;42.654;23.378;2023-04-16T13:23:44;4.68;;;2.22;;
6832;SDS011;3454;42.654;23.378;2023-04-16T13:26:10;3.70;;;2.10;;
6832;SDS011;3454;42.654;23.378;2023-04-16T13:28:39;2.13;;;1.77;;
6832;SDS011;3454;42.654;23.378;2023-04-16T13:31:05;3.47;;;1.50;;
6832;SDS011;3454;42.654;23.378;2023-04-16T13:33:31;2.78;;;1.92;;
6832;SDS011;3454;42.654;23.378;2023-04-16T13:35:57;5.57;;;2.55;;
6832;SDS011;3454;42.654;23.378;2023-04-16T13:38:23;6.10;;;2.17;;
6832;SDS011;3454;42.654;23.378;2023-04-16T13:40:50;6.15;;;2.38;;
6832;SDS011;3454;42.654;23.378;2023-04-16T13:43:16;5.07;;;1.85;;
6832;SDS011;3454;42.654;23.378;2023-04-16T13:45:43;3.38;;;1.73;;
6832;SDS011;3454;42.654;23.378;2023-04-16T13:48:09;2.22;;;1.42;;
6832;SDS011;3454;42.654;23.378;2023-04-16T13:50:35;1.98;;;1.50;;
6832;SDS011;3454;42.654;23.378;2023-04-16T13:53:00;3.50;;;1.60;;
6832;SDS011;3454;42.654;23.378;2023-04-16T13:55:26;1.65;;;1.55;;
6832;SDS011;3454;42.654;23.378;2023-04-16T13:57:52;3.05;;;1.73;;
6832;SDS011;3454;42.654;23.378;2023-04-16T14:00:17;3.65;;;1.70;;
6832;SDS011;3454;42.654;23.378;2023-04-16T14:02:43;2.88;;;1.60;;
6832;SDS011;3454;42.654;23.378;2023-04-16T14:05:10;2.85;;;1.67;;
6832;SDS011;3454;42.654;23.378;2023-04-16T14:07:36;7.22;;;2.00;;
6832;SDS011;3454;42.654;23.378;2023-04-16T14:10:01;2.55;;;1.20;;
6832;SDS011;3454;42.654;23.378;2023-04-16T14:12:27;6.35;;;2.00;;
6832;SDS011;3454;42.654;23.378;2023-04-16T14:14:53;2.80;;;1.70;;
6832;SDS011;3454;42.654;23.378;2023-04-16T14:17:19;5.68;;;1.80;;
6832;SDS011;3454;42.654;23.378;2023-04-16T14:19:44;1.90;;;1.33;;
6832;SDS011;3454;42.654;23.378;2023-04-16T14:22:10;4.43;;;1.77;;
6832;SDS011;3454;42.654;23.378;2023-04-16T14:24:35;2.95;;;1.98;;
6832;SDS011;3454;42.654;23.378;2023-04-16T14:27:00;3.47;;;2.20;;
6832;SDS011;3454;42.654;23.378;2023-04-16T14:29:26;3.72;;;2.20;;
6832;SDS011;3454;42.654;23.378;2023-04-16T14:31:52;4.22;;;1.63;;
6832;SDS011;3454;42.654;23.378;2023-04-16T14:34:17;4.40;;;1.80;;
6832;SDS011;3454;42.654;23.378;2023-04-16T14:36:43;5.47;;;1.95;;
6832;SDS011;3454;42.654;23.378;2023-04-16T14:39:09;2.10;;;1.55;;
6832;SDS011;3454;42.654;23.378;2023-04-16T14:41:35;3.83;;;1.75;;
6832;SDS011;3454;42.654;23.378;2023-04-16T14:44:00;4.30;;;1.85;;
6832;SDS011;3454;42.654;23.378;2023-04-16T14:46:26;5.70;;;2.38;;
6832;SDS011;3454;42.654;23.378;2023-04-16T14:48:51;5.72;;;2.40;;
6832;SDS011;3454;42.654;23.378;2023-04-16T14:51:23;5.00;;;2.08;;
6832;SDS011;3454;42.654;23.378;2023-04-16T14:53:48;4.80;;;2.65;;
6832;SDS011;3454;42.654;23.378;2023-04-16T14:56:14;2.70;;;1.85;;
6832;SDS011;3454;42.654;23.378;2023-04-16T14:58:46;3.28;;;2.10;;
6832;SDS011;3454;42.654;23.378;2023-04-16T15:01:11;2.90;;;2.03;;
6832;SDS011;3454;42.654;23.378;2023-04-16T15:03:39;2.28;;;1.95;;
6832;SDS011;3454;42.654;23.378;2023-04-16T15:06:05;3.08;;;1.77;;